Share

Fort Irwin, CA (92310)

Fort Irwin/Barstow, Bicycle L (KBYS) Elev 2349 ft | 35.28 °N, 116.63 °W | Change Station
Active Advisory: Wind Advisory

Current weather conditions updated 11 minutes ago

Clear
Clear
69 °F
Feels Like 69 °F
N
2
Wind Variable Wind from NE
Sunrise 6:06 AM
Sunset 7:24 PM
Moon Waning Gibbous

Today is forecast to be Warmer than yesterday.

Pressure 29.95 in
Visibility 10.0 miles
Clouds Clear
Dew Point 26 °F
Humidity 20%
Rainfall 0.00 in
Snow Depth Not available.
UV 2 out of 16
Pollen 6.30 out of 12
Air Quality Not available.
Flu Activity Sporadic
METAR KBYS 211455Z AUTO 04002KT 10SM CLR 20/M04 A3005 RMK AO2 SLP140 T02041036 52009 $

More Conditions Fewer Conditions

Pressure 29.95 in
Visibility 10.0 miles
Clouds Clear
Dew Point 26 °F
Humidity 20%
Rainfall 0.00 in
Snow Depth Not available.
UV 2 out of 16
Pollen 6.30 out of 12
Air Quality Not available.
Flu Activity Sporadic
METAR KBYS 211455Z AUTO 04002KT 10SM CLR 20/M04 A3005 RMK AO2 SLP140 T02041036 52009 $

More Conditions Fewer Conditions

10-Day Weather Forecast

Almanac

Astronomy

Apr. 21, 2014 Rise Set
Actual Time 6:06 AM PDT 7:24 PM PDT
Civil Twilight 5:39 AM PDT 7:50 PM PDT
Nautical Twilight 5:08 AM PDT 8:22 PM PDT
Astronomical Twilight 4:35 AM PDT 8:55 PM PDT
Moon 12:54 AM PDT 11:40 AM PDT
Length of Visible Light 14h 11m
Length of Day
13h 17m
Tomorrow will be 2m 2s longer.
Waning Gibbous, 58% of the Moon is Illuminated
Today
Waning Gibbous
Apr 22
Last Quarter
Apr 29
New
May 6
First Quarter
May 14
Full

Today's Extremes

State Highs State Lows

Community

  • Bright Eyes
    Bright Eyes
  • Snowy Robin
    Snowy Robin
  • Spring Crocus
    Spring Crocus
  • Sun Pillar and Geese
    Sun Pillar and Geese
  • Showers on the Way
    Showers on the Way

WunderPhotos

Upload Photos

1,703,653 photos uploaded!

Nearby

Air Quality

  Air Quality AQ Index Pollutant
Monday Good
PM10
Monday Good
OZONE
Monday Good
CO
Monday Good
NO2

Snow Depth

Station Depth Elevation
Virginia Lakes Ridge 17 in 9200 ft
Leavitt Lake 65 in 9400 ft
Leavitt Meadows 1 in 7200 ft
Sonora Pass 23 in 8800 ft
Summit Meadow 5 in 9122 ft

Coastal Water Temperatures

Place Temperature
No Stations Reporting

Earthquake Activity

City Distance Mag. Time & Date
No recent earthquake activity has been reported nearby.
Minimum magnitude displayed is 2.5.

Nearby Weather Stations

There are no personal weather stations in this area.

What do you think?

We're not finished. Please let us know what you like, what you don't like, and what you are still missing.